sensor_id;sensor_type;location;lat;lon;timestamp;P1;durP1;ratioP1;P2;durP2;ratioP2
47259;SDS011;32999;52.412;4.890;2024-03-17T00:04:37;6.22;;;2.22;;
47259;SDS011;32999;52.412;4.890;2024-03-17T00:09:39;8.38;;;2.33;;
47259;SDS011;32999;52.412;4.890;2024-03-17T00:14:42;6.07;;;1.65;;
47259;SDS011;32999;52.412;4.890;2024-03-17T00:19:45;4.47;;;1.33;;
47259;SDS011;32999;52.412;4.890;2024-03-17T00:24:46;6.38;;;1.85;;
47259;SDS011;32999;52.412;4.890;2024-03-17T00:29:49;10.70;;;1.70;;
47259;SDS011;32999;52.412;4.890;2024-03-17T00:34:51;6.25;;;1.90;;
47259;SDS011;32999;52.412;4.890;2024-03-17T00:39:53;4.75;;;1.33;;
47259;SDS011;32999;52.412;4.890;2024-03-17T00:44:56;6.20;;;1.42;;
47259;SDS011;32999;52.412;4.890;2024-03-17T00:50:00;7.53;;;1.42;;
47259;SDS011;32999;52.412;4.890;2024-03-17T00:55:01;8.48;;;1.80;;
47259;SDS011;32999;52.412;4.890;2024-03-17T01:00:06;7.45;;;1.58;;
47259;SDS011;32999;52.412;4.890;2024-03-17T01:05:10;7.00;;;2.17;;
47259;SDS011;32999;52.412;4.890;2024-03-17T01:10:12;4.65;;;1.38;;
47259;SDS011;32999;52.412;4.890;2024-03-17T01:15:15;10.07;;;1.63;;
47259;SDS011;32999;52.412;4.890;2024-03-17T01:20:17;11.15;;;2.60;;
47259;SDS011;32999;52.412;4.890;2024-03-17T01:25:19;6.60;;;2.67;;
47259;SDS011;32999;52.412;4.890;2024-03-17T01:30:22;4.20;;;1.63;;
47259;SDS011;32999;52.412;4.890;2024-03-17T01:35:24;10.75;;;2.13;;
47259;SDS011;32999;52.412;4.890;2024-03-17T01:40:25;9.40;;;2.53;;
47259;SDS011;32999;52.412;4.890;2024-03-17T01:45:29;11.20;;;2.63;;
47259;SDS011;32999;52.412;4.890;2024-03-17T01:50:33;14.85;;;2.38;;
47259;SDS011;32999;52.412;4.890;2024-03-17T02:00:41;12.88;;;2.92;;
47259;SDS011;32999;52.412;4.890;2024-03-17T02:05:42;5.97;;;1.65;;
47259;SDS011;32999;52.412;4.890;2024-03-17T02:10:45;5.60;;;1.67;;
47259;SDS011;32999;52.412;4.890;2024-03-17T02:15:48;7.30;;;1.58;;
47259;SDS011;32999;52.412;4.890;2024-03-17T02:20:50;5.93;;;1.55;;
47259;SDS011;32999;52.412;4.890;2024-03-17T02:26:00;8.25;;;1.90;;
47259;SDS011;32999;52.412;4.890;2024-03-17T02:31:02;6.28;;;1.95;;
47259;SDS011;32999;52.412;4.890;2024-03-17T02:36:05;7.82;;;2.05;;
47259;SDS011;32999;52.412;4.890;2024-03-17T02:41:10;6.55;;;2.80;;
47259;SDS011;32999;52.412;4.890;2024-03-17T02:46:12;6.80;;;1.83;;
47259;SDS011;32999;52.412;4.890;2024-03-17T02:51:14;6.45;;;2.35;;
47259;SDS011;32999;52.412;4.890;2024-03-17T02:56:19;8.65;;;2.50;;
47259;SDS011;32999;52.412;4.890;2024-03-17T03:01:21;10.57;;;1.80;;
47259;SDS011;32999;52.412;4.890;2024-03-17T03:06:23;7.43;;;3.05;;
47259;SDS011;32999;52.412;4.890;2024-03-17T03:11:26;6.03;;;2.63;;
47259;SDS011;32999;52.412;4.890;2024-03-17T03:16:28;9.95;;;3.22;;
47259;SDS011;32999;52.412;4.890;2024-03-17T03:21:30;6.18;;;2.97;;
47259;SDS011;32999;52.412;4.890;2024-03-17T03:26:33;7.78;;;2.85;;
47259;SDS011;32999;52.412;4.890;2024-03-17T03:31:34;7.25;;;3.03;;
47259;SDS011;32999;52.412;4.890;2024-03-17T03:36:39;9.27;;;2.90;;
47259;SDS011;32999;52.412;4.890;2024-03-17T03:41:43;7.93;;;3.15;;
47259;SDS011;32999;52.412;4.890;2024-03-17T03:46:45;7.22;;;3.20;;
47259;SDS011;32999;52.412;4.890;2024-03-17T03:51:46;5.65;;;2.88;;
47259;SDS011;32999;52.412;4.890;2024-03-17T03:56:50;9.00;;;3.22;;
47259;SDS011;32999;52.412;4.890;2024-03-17T04:01:51;9.02;;;3.15;;
47259;SDS011;32999;52.412;4.890;2024-03-17T04:06:54;5.03;;;2.80;;
47259;SDS011;32999;52.412;4.890;2024-03-17T04:11:57;8.88;;;3.45;;
47259;SDS011;32999;52.412;4.890;2024-03-17T04:16:59;7.00;;;3.50;;
47259;SDS011;32999;52.412;4.890;2024-03-17T04:22:00;7.50;;;3.17;;
47259;SDS011;32999;52.412;4.890;2024-03-17T04:27:04;5.68;;;3.08;;
47259;SDS011;32999;52.412;4.890;2024-03-17T04:32:06;8.73;;;3.67;;
47259;SDS011;32999;52.412;4.890;2024-03-17T04:37:09;10.93;;;3.50;;
47259;SDS011;32999;52.412;4.890;2024-03-17T04:42:14;6.47;;;2.88;;
47259;SDS011;32999;52.412;4.890;2024-03-17T04:47:17;9.18;;;3.17;;
47259;SDS011;32999;52.412;4.890;2024-03-17T04:52:19;5.72;;;3.05;;
47259;SDS011;32999;52.412;4.890;2024-03-17T04:57:22;7.55;;;3.22;;
47259;SDS011;32999;52.412;4.890;2024-03-17T05:02:24;7.32;;;3.05;;
47259;SDS011;32999;52.412;4.890;2024-03-17T05:07:27;8.07;;;4.93;;
47259;SDS011;32999;52.412;4.890;2024-03-17T05:12:30;4.57;;;2.78;;
47259;SDS011;32999;52.412;4.890;2024-03-17T05:17:32;9.27;;;3.20;;
47259;SDS011;32999;52.412;4.890;2024-03-17T05:22:34;8.60;;;3.03;;
47259;SDS011;32999;52.412;4.890;2024-03-17T05:27:37;5.80;;;3.33;;
47259;SDS011;32999;52.412;4.890;2024-03-17T05:32:38;7.88;;;3.72;;
47259;SDS011;32999;52.412;4.890;2024-03-17T05:37:40;10.23;;;3.65;;
47259;SDS011;32999;52.412;4.890;2024-03-17T05:42:43;6.47;;;3.70;;
47259;SDS011;32999;52.412;4.890;2024-03-17T05:47:45;6.97;;;3.45;;
47259;SDS011;32999;52.412;4.890;2024-03-17T05:52:47;7.47;;;3.38;;
47259;SDS011;32999;52.412;4.890;2024-03-17T05:57:50;10.88;;;3.70;;
47259;SDS011;32999;52.412;4.890;2024-03-17T06:02:51;6.30;;;3.63;;
47259;SDS011;32999;52.412;4.890;2024-03-17T06:07:53;5.20;;;3.65;;
47259;SDS011;32999;52.412;4.890;2024-03-17T06:12:56;7.38;;;3.53;;
47259;SDS011;32999;52.412;4.890;2024-03-17T06:17:58;8.85;;;3.35;;
47259;SDS011;32999;52.412;4.890;2024-03-17T06:23:02;8.00;;;4.00;;
47259;SDS011;32999;52.412;4.890;2024-03-17T06:28:05;5.60;;;3.63;;
47259;SDS011;32999;52.412;4.890;2024-03-17T06:33:11;7.95;;;4.15;;
47259;SDS011;32999;52.412;4.890;2024-03-17T06:38:19;9.20;;;4.00;;
47259;SDS011;32999;52.412;4.890;2024-03-17T06:43:22;7.00;;;4.30;;
47259;SDS011;32999;52.412;4.890;2024-03-17T06:48:24;5.25;;;3.80;;
47259;SDS011;32999;52.412;4.890;2024-03-17T06:53:30;7.20;;;4.22;;
47259;SDS011;32999;52.412;4.890;2024-03-17T06:58:41;6.60;;;4.18;;
47259;SDS011;32999;52.412;4.890;2024-03-17T07:03:42;8.00;;;3.90;;
47259;SDS011;32999;52.412;4.890;2024-03-17T07:08:44;11.15;;;4.55;;
47259;SDS011;32999;52.412;4.890;2024-03-17T07:13:47;7.68;;;4.20;;
47259;SDS011;32999;52.412;4.890;2024-03-17T07:18:51;7.30;;;4.72;;
47259;SDS011;32999;52.412;4.890;2024-03-17T07:23:53;8.35;;;4.95;;
47259;SDS011;32999;52.412;4.890;2024-03-17T07:28:56;9.55;;;4.85;;
47259;SDS011;32999;52.412;4.890;2024-03-17T07:33:58;6.50;;;4.07;;
47259;SDS011;32999;52.412;4.890;2024-03-17T07:38:59;10.07;;;4.53;;
47259;SDS011;32999;52.412;4.890;2024-03-17T07:44:03;7.80;;;4.45;;
47259;SDS011;32999;52.412;4.890;2024-03-17T07:49:05;7.38;;;5.00;;
47259;SDS011;32999;52.412;4.890;2024-03-17T07:54:08;10.23;;;4.65;;
47259;SDS011;32999;52.412;4.890;2024-03-17T07:59:10;7.95;;;4.55;;
47259;SDS011;32999;52.412;4.890;2024-03-17T08:04:16;8.18;;;4.78;;
47259;SDS011;32999;52.412;4.890;2024-03-17T08:09:18;5.35;;;4.18;;
47259;SDS011;32999;52.412;4.890;2024-03-17T08:14:24;9.73;;;4.43;;
47259;SDS011;32999;52.412;4.890;2024-03-17T08:19:26;8.18;;;4.85;;
47259;SDS011;32999;52.412;4.890;2024-03-17T08:24:28;7.50;;;4.78;;
47259;SDS011;32999;52.412;4.890;2024-03-17T08:29:35;7.35;;;4.63;;
47259;SDS011;32999;52.412;4.890;2024-03-17T08:34:37;6.90;;;4.72;;
47259;SDS011;32999;52.412;4.890;2024-03-17T08:40:57;9.23;;;4.90;;
47259;SDS011;32999;52.412;4.890;2024-03-17T08:45:45;10.90;;;6.32;;
47259;SDS011;32999;52.412;4.890;2024-03-17T08:50:55;9.18;;;4.97;;
47259;SDS011;32999;52.412;4.890;2024-03-17T08:55:58;11.88;;;5.07;;
47259;SDS011;32999;52.412;4.890;2024-03-17T09:01:04;9.13;;;4.88;;
47259;SDS011;32999;52.412;4.890;2024-03-17T09:06:13;7.65;;;4.93;;
47259;SDS011;32999;52.412;4.890;2024-03-17T09:11:16;9.95;;;5.25;;
47259;SDS011;32999;52.412;4.890;2024-03-17T09:16:19;8.98;;;4.68;;
47259;SDS011;32999;52.412;4.890;2024-03-17T09:21:23;13.23;;;6.25;;
47259;SDS011;32999;52.412;4.890;2024-03-17T09:26:26;8.15;;;5.40;;
47259;SDS011;32999;52.412;4.890;2024-03-17T09:31:30;10.07;;;4.72;;
47259;SDS011;32999;52.412;4.890;2024-03-17T09:36:33;6.32;;;4.88;;
47259;SDS011;32999;52.412;4.890;2024-03-17T09:41:35;10.73;;;4.57;;
47259;SDS011;32999;52.412;4.890;2024-03-17T09:51:44;8.45;;;5.05;;
47259;SDS011;32999;52.412;4.890;2024-03-17T10:01:53;8.88;;;4.93;;
47259;SDS011;32999;52.412;4.890;2024-03-17T10:06:55;6.30;;;5.37;;
47259;SDS011;32999;52.412;4.890;2024-03-17T10:11:57;8.77;;;5.10;;
47259;SDS011;32999;52.412;4.890;2024-03-17T10:17:00;9.50;;;6.28;;
47259;SDS011;32999;52.412;4.890;2024-03-17T10:22:02;8.60;;;5.30;;
47259;SDS011;32999;52.412;4.890;2024-03-17T10:27:04;7.30;;;5.32;;
47259;SDS011;32999;52.412;4.890;2024-03-17T10:32:15;7.50;;;5.00;;
47259;SDS011;32999;52.412;4.890;2024-03-17T10:37:20;7.13;;;4.88;;
47259;SDS011;32999;52.412;4.890;2024-03-17T10:42:26;8.07;;;5.88;;
47259;SDS011;32999;52.412;4.890;2024-03-17T10:47:32;9.10;;;5.20;;
47259;SDS011;32999;52.412;4.890;2024-03-17T10:52:35;7.07;;;4.90;;
47259;SDS011;32999;52.412;4.890;2024-03-17T10:57:44;8.38;;;4.93;;
47259;SDS011;32999;52.412;4.890;2024-03-17T11:02:51;7.07;;;4.72;;
47259;SDS011;32999;52.412;4.890;2024-03-17T11:07:55;7.78;;;5.00;;
47259;SDS011;32999;52.412;4.890;2024-03-17T11:13:01;7.20;;;4.85;;
47259;SDS011;32999;52.412;4.890;2024-03-17T11:23:43;8.38;;;4.78;;
47259;SDS011;32999;52.412;4.890;2024-03-17T11:28:55;10.07;;;4.82;;
47259;SDS011;32999;52.412;4.890;2024-03-17T11:33:58;9.13;;;4.63;;
47259;SDS011;32999;52.412;4.890;2024-03-17T11:50:09;6.97;;;4.38;;
47259;SDS011;32999;52.412;4.890;2024-03-17T12:00:41;6.57;;;5.00;;
47259;SDS011;32999;52.412;4.890;2024-03-17T12:05:43;7.60;;;5.03;;
47259;SDS011;32999;52.412;4.890;2024-03-17T12:10:48;8.25;;;4.53;;
47259;SDS011;32999;52.412;4.890;2024-03-17T12:15:50;8.30;;;5.38;;
47259;SDS011;32999;52.412;4.890;2024-03-17T12:21:12;8.40;;;4.90;;
47259;SDS011;32999;52.412;4.890;2024-03-17T12:26:16;7.65;;;4.90;;
47259;SDS011;32999;52.412;4.890;2024-03-17T12:31:17;7.22;;;4.47;;
47259;SDS011;32999;52.412;4.890;2024-03-17T12:36:20;9.73;;;4.70;;
47259;SDS011;32999;52.412;4.890;2024-03-17T12:41:25;6.53;;;5.13;;
47259;SDS011;32999;52.412;4.890;2024-03-17T12:46:27;8.25;;;4.78;;
47259;SDS011;32999;52.412;4.890;2024-03-17T12:51:29;9.65;;;4.70;;
47259;SDS011;32999;52.412;4.890;2024-03-17T12:56:38;8.70;;;5.15;;
47259;SDS011;32999;52.412;4.890;2024-03-17T13:02:00;10.80;;;5.30;;
47259;SDS011;32999;52.412;4.890;2024-03-17T13:07:16;7.03;;;4.95;;
47259;SDS011;32999;52.412;4.890;2024-03-17T13:12:20;9.43;;;5.53;;
47259;SDS011;32999;52.412;4.890;2024-03-17T13:17:22;8.77;;;5.70;;
47259;SDS011;32999;52.412;4.890;2024-03-17T13:22:24;8.82;;;5.78;;
47259;SDS011;32999;52.412;4.890;2024-03-17T13:27:49;10.73;;;5.68;;
47259;SDS011;32999;52.412;4.890;2024-03-17T13:33:02;15.27;;;6.00;;
47259;SDS011;32999;52.412;4.890;2024-03-17T13:38:12;7.32;;;5.68;;
47259;SDS011;32999;52.412;4.890;2024-03-17T13:48:26;11.90;;;5.82;;
47259;SDS011;32999;52.412;4.890;2024-03-17T13:53:28;9.93;;;6.03;;
47259;SDS011;32999;52.412;4.890;2024-03-17T13:58:31;11.20;;;5.57;;
47259;SDS011;32999;52.412;4.890;2024-03-17T14:03:37;8.63;;;5.32;;
47259;SDS011;32999;52.412;4.890;2024-03-17T14:08:39;11.55;;;6.07;;
47259;SDS011;32999;52.412;4.890;2024-03-17T14:13:42;8.65;;;4.95;;
47259;SDS011;32999;52.412;4.890;2024-03-17T14:18:43;7.03;;;5.22;;
47259;SDS011;32999;52.412;4.890;2024-03-17T14:23:45;9.23;;;4.80;;
47259;SDS011;32999;52.412;4.890;2024-03-17T14:28:48;9.02;;;4.82;;
47259;SDS011;32999;52.412;4.890;2024-03-17T14:33:51;8.82;;;5.13;;
47259;SDS011;32999;52.412;4.890;2024-03-17T14:38:53;9.77;;;4.50;;
47259;SDS011;32999;52.412;4.890;2024-03-17T14:44:02;7.22;;;5.13;;
47259;SDS011;32999;52.412;4.890;2024-03-17T14:49:04;9.70;;;5.07;;
47259;SDS011;32999;52.412;4.890;2024-03-17T14:54:06;9.00;;;5.80;;
47259;SDS011;32999;52.412;4.890;2024-03-17T14:59:11;6.97;;;4.75;;
47259;SDS011;32999;52.412;4.890;2024-03-17T15:04:13;8.25;;;5.10;;
47259;SDS011;32999;52.412;4.890;2024-03-17T15:09:18;8.23;;;5.15;;
47259;SDS011;32999;52.412;4.890;2024-03-17T15:14:23;9.52;;;5.05;;
47259;SDS011;32999;52.412;4.890;2024-03-17T15:19:25;8.30;;;5.25;;
47259;SDS011;32999;52.412;4.890;2024-03-17T15:24:27;8.63;;;5.28;;
47259;SDS011;32999;52.412;4.890;2024-03-17T15:29:31;9.65;;;5.38;;
47259;SDS011;32999;52.412;4.890;2024-03-17T15:34:33;8.43;;;5.05;;
47259;SDS011;32999;52.412;4.890;2024-03-17T15:39:37;8.57;;;6.13;;
47259;SDS011;32999;52.412;4.890;2024-03-17T15:44:40;11.65;;;5.18;;
47259;SDS011;32999;52.412;4.890;2024-03-17T15:49:42;11.18;;;5.97;;
47259;SDS011;32999;52.412;4.890;2024-03-17T15:54:47;8.65;;;5.75;;
47259;SDS011;32999;52.412;4.890;2024-03-17T15:59:50;8.80;;;5.55;;
47259;SDS011;32999;52.412;4.890;2024-03-17T16:04:53;9.07;;;5.32;;
47259;SDS011;32999;52.412;4.890;2024-03-17T16:09:56;7.57;;;5.38;;
47259;SDS011;32999;52.412;4.890;2024-03-17T16:15:00;12.10;;;6.78;;
47259;SDS011;32999;52.412;4.890;2024-03-17T16:20:02;8.77;;;5.63;;
47259;SDS011;32999;52.412;4.890;2024-03-17T16:25:09;11.60;;;6.10;;
47259;SDS011;32999;52.412;4.890;2024-03-17T16:30:14;11.80;;;7.90;;
47259;SDS011;32999;52.412;4.890;2024-03-17T16:35:16;13.73;;;7.32;;
47259;SDS011;32999;52.412;4.890;2024-03-17T16:40:17;12.38;;;7.22;;
47259;SDS011;32999;52.412;4.890;2024-03-17T16:45:21;11.25;;;6.78;;
47259;SDS011;32999;52.412;4.890;2024-03-17T16:50:29;11.93;;;7.03;;
47259;SDS011;32999;52.412;4.890;2024-03-17T16:55:32;11.88;;;7.50;;
47259;SDS011;32999;52.412;4.890;2024-03-17T17:00:36;14.50;;;7.57;;
47259;SDS011;32999;52.412;4.890;2024-03-17T17:05:38;11.60;;;8.48;;
47259;SDS011;32999;52.412;4.890;2024-03-17T17:10:40;12.48;;;7.60;;
47259;SDS011;32999;52.412;4.890;2024-03-17T17:15:43;13.07;;;8.52;;
47259;SDS011;32999;52.412;4.890;2024-03-17T17:20:44;12.18;;;7.15;;
47259;SDS011;32999;52.412;4.890;2024-03-17T17:25:46;12.65;;;8.75;;
47259;SDS011;32999;52.412;4.890;2024-03-17T17:30:50;14.57;;;7.78;;
47259;SDS011;32999;52.412;4.890;2024-03-17T17:35:53;17.30;;;8.63;;
47259;SDS011;32999;52.412;4.890;2024-03-17T17:41:09;15.50;;;9.15;;
47259;SDS011;32999;52.412;4.890;2024-03-17T17:46:36;15.05;;;9.80;;
47259;SDS011;32999;52.412;4.890;2024-03-17T17:51:40;16.27;;;9.73;;
47259;SDS011;32999;52.412;4.890;2024-03-17T17:56:46;14.75;;;9.93;;
47259;SDS011;32999;52.412;4.890;2024-03-17T18:01:52;16.42;;;9.48;;
47259;SDS011;32999;52.412;4.890;2024-03-17T18:06:54;18.35;;;9.55;;
47259;SDS011;32999;52.412;4.890;2024-03-17T18:11:56;18.77;;;9.70;;
47259;SDS011;32999;52.412;4.890;2024-03-17T18:17:00;20.80;;;10.55;;
47259;SDS011;32999;52.412;4.890;2024-03-17T18:22:01;19.00;;;11.15;;
47259;SDS011;32999;52.412;4.890;2024-03-17T18:27:03;22.17;;;11.13;;
47259;SDS011;32999;52.412;4.890;2024-03-17T18:32:07;18.10;;;10.95;;
47259;SDS011;32999;52.412;4.890;2024-03-17T18:37:08;19.75;;;9.80;;
47259;SDS011;32999;52.412;4.890;2024-03-17T18:42:10;19.13;;;9.77;;
47259;SDS011;32999;52.412;4.890;2024-03-17T18:47:13;15.18;;;9.20;;
47259;SDS011;32999;52.412;4.890;2024-03-17T18:52:15;18.38;;;9.68;;
47259;SDS011;32999;52.412;4.890;2024-03-17T19:03:15;14.52;;;9.13;;
47259;SDS011;32999;52.412;4.890;2024-03-17T19:08:16;12.82;;;8.32;;
47259;SDS011;32999;52.412;4.890;2024-03-17T19:13:20;12.68;;;8.73;;
47259;SDS011;32999;52.412;4.890;2024-03-17T19:18:24;13.85;;;8.88;;
47259;SDS011;32999;52.412;4.890;2024-03-17T19:23:25;12.60;;;7.95;;
47259;SDS011;32999;52.412;4.890;2024-03-17T19:28:27;17.38;;;9.15;;
47259;SDS011;32999;52.412;4.890;2024-03-17T19:33:31;16.02;;;8.65;;
47259;SDS011;32999;52.412;4.890;2024-03-17T19:38:33;15.20;;;8.85;;
47259;SDS011;32999;52.412;4.890;2024-03-17T19:43:36;16.73;;;9.25;;
47259;SDS011;32999;52.412;4.890;2024-03-17T19:48:42;13.98;;;9.00;;
47259;SDS011;32999;52.412;4.890;2024-03-17T19:53:48;27.08;;;10.85;;
47259;SDS011;32999;52.412;4.890;2024-03-17T19:58:51;21.33;;;9.75;;
47259;SDS011;32999;52.412;4.890;2024-03-17T20:03:55;20.42;;;10.57;;
47259;SDS011;32999;52.412;4.890;2024-03-17T20:08:57;22.75;;;10.68;;
47259;SDS011;32999;52.412;4.890;2024-03-17T20:13:58;21.17;;;9.82;;
47259;SDS011;32999;52.412;4.890;2024-03-17T20:19:03;18.38;;;9.45;;
47259;SDS011;32999;52.412;4.890;2024-03-17T20:24:05;15.88;;;9.00;;
47259;SDS011;32999;52.412;4.890;2024-03-17T20:29:08;17.35;;;10.15;;
47259;SDS011;32999;52.412;4.890;2024-03-17T20:34:12;19.90;;;9.30;;
47259;SDS011;32999;52.412;4.890;2024-03-17T20:39:13;12.75;;;8.85;;
47259;SDS011;32999;52.412;4.890;2024-03-17T20:44:15;22.02;;;9.57;;
47259;SDS011;32999;52.412;4.890;2024-03-17T20:49:19;14.73;;;8.25;;
47259;SDS011;32999;52.412;4.890;2024-03-17T20:54:21;13.05;;;7.88;;
47259;SDS011;32999;52.412;4.890;2024-03-17T20:59:23;14.43;;;8.13;;
47259;SDS011;32999;52.412;4.890;2024-03-17T21:04:27;24.63;;;10.02;;
47259;SDS011;32999;52.412;4.890;2024-03-17T21:09:29;20.93;;;9.30;;
47259;SDS011;32999;52.412;4.890;2024-03-17T21:14:31;13.73;;;8.00;;
47259;SDS011;32999;52.412;4.890;2024-03-17T21:19:34;17.20;;;9.43;;
47259;SDS011;32999;52.412;4.890;2024-03-17T21:24:36;16.33;;;8.70;;
47259;SDS011;32999;52.412;4.890;2024-03-17T21:29:38;16.08;;;9.85;;
47259;SDS011;32999;52.412;4.890;2024-03-17T21:34:41;17.27;;;9.07;;
47259;SDS011;32999;52.412;4.890;2024-03-17T21:39:43;17.63;;;9.20;;
47259;SDS011;32999;52.412;4.890;2024-03-17T21:44:48;15.55;;;8.80;;
47259;SDS011;32999;52.412;4.890;2024-03-17T21:49:52;13.85;;;8.18;;
47259;SDS011;32999;52.412;4.890;2024-03-17T21:54:54;14.07;;;7.72;;
47259;SDS011;32999;52.412;4.890;2024-03-17T21:59:56;12.70;;;8.05;;
47259;SDS011;32999;52.412;4.890;2024-03-17T22:04:59;14.15;;;6.90;;
47259;SDS011;32999;52.412;4.890;2024-03-17T22:10:03;11.68;;;7.05;;
47259;SDS011;32999;52.412;4.890;2024-03-17T22:15:06;10.85;;;6.47;;
47259;SDS011;32999;52.412;4.890;2024-03-17T22:20:12;10.55;;;6.63;;
47259;SDS011;32999;52.412;4.890;2024-03-17T22:25:13;9.73;;;6.50;;
47259;SDS011;32999;52.412;4.890;2024-03-17T22:30:15;15.45;;;7.10;;
47259;SDS011;32999;52.412;4.890;2024-03-17T22:35:18;10.05;;;6.60;;
47259;SDS011;32999;52.412;4.890;2024-03-17T22:40:20;9.80;;;6.57;;
47259;SDS011;32999;52.412;4.890;2024-03-17T22:45:22;9.43;;;6.70;;
47259;SDS011;32999;52.412;4.890;2024-03-17T22:50:25;11.27;;;7.20;;
47259;SDS011;32999;52.412;4.890;2024-03-17T23:00:29;14.25;;;8.20;;
47259;SDS011;32999;52.412;4.890;2024-03-17T23:05:43;9.60;;;7.13;;
47259;SDS011;32999;52.412;4.890;2024-03-17T23:10:45;9.90;;;7.25;;
47259;SDS011;32999;52.412;4.890;2024-03-17T23:15:49;11.57;;;7.40;;
47259;SDS011;32999;52.412;4.890;2024-03-17T23:20:53;10.80;;;7.82;;
47259;SDS011;32999;52.412;4.890;2024-03-17T23:25:55;11.40;;;8.02;;
47259;SDS011;32999;52.412;4.890;2024-03-17T23:30:57;12.98;;;9.00;;
47259;SDS011;32999;52.412;4.890;2024-03-17T23:36:00;13.48;;;8.50;;
47259;SDS011;32999;52.412;4.890;2024-03-17T23:41:02;11.88;;;8.70;;
47259;SDS011;32999;52.412;4.890;2024-03-17T23:46:04;10.77;;;8.20;;
47259;SDS011;32999;52.412;4.890;2024-03-17T23:51:11;11.60;;;8.43;;
47259;SDS011;32999;52.412;4.890;2024-03-17T23:56:16;14.00;;;9.27;;
